Ljuta — J8B4127 — position and weather

sailwx.info

Track history (hours):
 
Tides and Currents Weather Stations Pressure Air Temp Water Temp Dewpoint Dewpoint Depression Visibility Wind Speed Wind Dir Waves Ship Positions

Ljuta

Last reported at 2017-Jan-09 03:33 UTC. Time now 2017-Jan-17 11:03 UTC.
Position N 54°47' E 015°17'.
Warning: this ship's position is 8 days out of date.

Length 177 m; draft 9.5 m.

Type: Cargo ship. MMSI: 377715000.

Date/timePositionNaut miles runAvg speedWind from/ knotsBaromVisibWave heightAir tempDewpointWater temp
2017-Jan-09 03:33N 54°47' E 015°17'1313.3
2017-Jan-09 02:33N 54°42' E 014°56'6412.7
2017-Jan-08 21:30N 54°45' E 013°04'1513.1
2017-Jan-08 20:23N 54°43' E 012°39'1512.7
2017-Jan-08 19:13N 54°35' E 012°18'912.8
2017-Jan-08 18:33N 54°27' E 012°13'1212.0
2017-Jan-08 17:33N 54°25' E 011°53'1212.3
2017-Jan-08 16:33N 54°29' E 011°32'1312.6
2017-Jan-08 15:33N 54°34' E 011°13'1212.3
2017-Jan-08 14:33N 54°41' E 010°55'1010.4
2017-Jan-08 13:33N 54°51' E 010°52'1111.0
2017-Jan-08 12:33N 55°01' E 011°01'1211.5
2017-Jan-08 11:33N 55°12' E 011°05'3811.2
2017-Jan-08 08:10N 55°49' E 010°48'3612.7
2017-Jan-08 05:18N 56°19' E 011°25'2713.3
2017-Jan-08 03:15N 56°42' E 011°49'1312.9
2017-Jan-08 02:13N 56°56' E 011°46'913.2
2017-Jan-08 01:31N 57°05' E 011°40'1313.5
2017-Jan-08 00:33N 57°17' E 011°32'1313.2
2017-Jan-07 23:33N 57°29' E 011°22'1313.4
2017-Jan-07 22:33N 57°38' E 011°03'1111.0
2017-Jan-07 21:33N 57°40' E 010°43'1 1.3
2017-Jan-07 20:32N 57°40' E 010°40'0 0.0
2017-Jan-07 19:29N 57°40' E 010°40'0 0.0
2017-Jan-07 18:32N 57°40' E 010°40'0 0.0
2017-Jan-07 17:29N 57°40' E 010°40'0 0.0
2017-Jan-07 14:29N 57°40' E 010°40'0 0.0
2017-Jan-07 13:32N 57°40' E 010°40'0 0.0
2017-Jan-07 12:32N 57°40' E 010°40'0 0.1
2017-Jan-07 11:32N 57°40' E 010°40'0 0.1
2017-Jan-07 10:33N 57°40' E 010°41'4 3.9
2017-Jan-07 09:33N 57°43' E 010°45'7 7.1
2017-Jan-07 08:33N 57°47' E 010°34'19612.9
2017-Jan-06 17:20N 55°26' E 006°26'15513.2
2017-Jan-06 05:33N 53°07' E 004°29'1312.4
2017-Jan-06 04:32N 52°56' E 004°18'1212.2
2017-Jan-06 03:33N 52°46' E 004°09'1211.9
2017-Jan-06 02:33N 52°37' E 003°55'1411.8
2017-Jan-06 01:22N 52°27' E 003°39'6812.9
2017-Jan-05 20:04N 51°37' E 002°24'714.2
2017-Jan-05 19:33N 51°31' E 002°17'1414.1
2017-Jan-05 18:34N 51°19' E 002°07'1413.9
2017-Jan-05 17:33N 51°09' E 001°50'1615.6
2017-Jan-05 16:33N 50°58' E 001°33'6913.3
2017-Jan-05 11:21N 50°20' E 000°02'1113.5
2017-Jan-05 10:33N 50°17' W 000°14'14912.1
2017-Jan-04 22:13N 49°27' W 003°53'2914.0
2017-Jan-04 20:08N 49°12' W 004°31'814.1
2017-Jan-04 19:33N 49°07' W 004°41'1414.0
2017-Jan-04 18:34N 49°00' W 004°60'1413.8
2017-Jan-04 17:32N 48°54' W 005°19'1313.6
2017-Jan-04 16:33N 48°47' W 005°36'1713.1
2017-Jan-04 15:16N 48°32' W 005°49'913.0
2017-Jan-04 14:33N 48°24' W 005°55'  
2016-Dec-31 14:18N 28°58' W 015°04'1114.2
2016-Dec-31 13:34N 28°48' W 015°07'1414.1
2016-Dec-31 12:33N 28°35' W 015°12'1414.0
2016-Dec-31 11:33N 28°21' W 015°16'1212.0
2016-Dec-31 10:33N 28°09' W 015°20'4 3.7
2016-Dec-31 09:33N 28°06' W 015°20'8 8.5
2016-Dec-31 08:33N 27°58' W 015°16'1212.2
2016-Dec-31 07:33N 27°47' W 015°21'  
Track history (hours):
 
Tides and Currents Weather Stations Pressure Air Temp Water Temp Dewpoint Dewpoint Depression Visibility Wind Speed Wind Dir Waves Ship Positions

Ljuta

Last reported at 2017-Jan-09 03:33 UTC. Time now 2017-Jan-17 11:03 UTC.
Position N 54°47' E 015°17'.
Warning: this ship's position is 8 days out of date.

Length 177 m; draft 9.5 m.

Type: Cargo ship. MMSI: 377715000.

Date/timePositionNaut miles runAvg speedWind from/ knotsBaromVisibWave heightAir tempDewpointWater temp
2017-Jan-09 03:33N 54°47' E 015°17'1313.3
2017-Jan-09 02:33N 54°42' E 014°56'6412.7
2017-Jan-08 21:30N 54°45' E 013°04'1513.1
2017-Jan-08 20:23N 54°43' E 012°39'1512.7
2017-Jan-08 19:13N 54°35' E 012°18'912.8
2017-Jan-08 18:33N 54°27' E 012°13'1212.0
2017-Jan-08 17:33N 54°25' E 011°53'1212.3
2017-Jan-08 16:33N 54°29' E 011°32'1312.6
2017-Jan-08 15:33N 54°34' E 011°13'1212.3
2017-Jan-08 14:33N 54°41' E 010°55'1010.4
2017-Jan-08 13:33N 54°51' E 010°52'1111.0
2017-Jan-08 12:33N 55°01' E 011°01'1211.5
2017-Jan-08 11:33N 55°12' E 011°05'3811.2
2017-Jan-08 08:10N 55°49' E 010°48'3612.7
2017-Jan-08 05:18N 56°19' E 011°25'2713.3
2017-Jan-08 03:15N 56°42' E 011°49'1312.9
2017-Jan-08 02:13N 56°56' E 011°46'913.2
2017-Jan-08 01:31N 57°05' E 011°40'1313.5
2017-Jan-08 00:33N 57°17' E 011°32'1313.2
2017-Jan-07 23:33N 57°29' E 011°22'1313.4
2017-Jan-07 22:33N 57°38' E 011°03'1111.0
2017-Jan-07 21:33N 57°40' E 010°43'1 1.3
2017-Jan-07 20:32N 57°40' E 010°40'0 0.0
2017-Jan-07 19:29N 57°40' E 010°40'0 0.0
2017-Jan-07 18:32N 57°40' E 010°40'0 0.0
2017-Jan-07 17:29N 57°40' E 010°40'0 0.0
2017-Jan-07 14:29N 57°40' E 010°40'0 0.0
2017-Jan-07 13:32N 57°40' E 010°40'0 0.0
2017-Jan-07 12:32N 57°40' E 010°40'0 0.1
2017-Jan-07 11:32N 57°40' E 010°40'0 0.1
2017-Jan-07 10:33N 57°40' E 010°41'4 3.9
2017-Jan-07 09:33N 57°43' E 010°45'7 7.1
2017-Jan-07 08:33N 57°47' E 010°34'19612.9
2017-Jan-06 17:20N 55°26' E 006°26'15513.2
2017-Jan-06 05:33N 53°07' E 004°29'1312.4
2017-Jan-06 04:32N 52°56' E 004°18'1212.2
2017-Jan-06 03:33N 52°46' E 004°09'1211.9
2017-Jan-06 02:33N 52°37' E 003°55'1411.8
2017-Jan-06 01:22N 52°27' E 003°39'6812.9
2017-Jan-05 20:04N 51°37' E 002°24'714.2
2017-Jan-05 19:33N 51°31' E 002°17'1414.1
2017-Jan-05 18:34N 51°19' E 002°07'1413.9
2017-Jan-05 17:33N 51°09' E 001°50'1615.6
2017-Jan-05 16:33N 50°58' E 001°33'6913.3
2017-Jan-05 11:21N 50°20' E 000°02'1113.5
2017-Jan-05 10:33N 50°17' W 000°14'14912.1
2017-Jan-04 22:13N 49°27' W 003°53'2914.0
2017-Jan-04 20:08N 49°12' W 004°31'814.1
2017-Jan-04 19:33N 49°07' W 004°41'1414.0
2017-Jan-04 18:34N 49°00' W 004°60'1413.8
2017-Jan-04 17:32N 48°54' W 005°19'1313.6
2017-Jan-04 16:33N 48°47' W 005°36'1713.1
2017-Jan-04 15:16N 48°32' W 005°49'913.0
2017-Jan-04 14:33N 48°24' W 005°55'  
2016-Dec-31 14:18N 28°58' W 015°04'1114.2
2016-Dec-31 13:34N 28°48' W 015°07'1414.1
2016-Dec-31 12:33N 28°35' W 015°12'1414.0
2016-Dec-31 11:33N 28°21' W 015°16'1212.0
2016-Dec-31 10:33N 28°09' W 015°20'4 3.7
2016-Dec-31 09:33N 28°06' W 015°20'8 8.5
2016-Dec-31 08:33N 27°58' W 015°16'1212.2
2016-Dec-31 07:33N 27°47' W 015°21'  

Dump ship's entire track history